Time;durP1;ratioP1;P1;durP2;ratioP2;P2;SDS_P1;SDS_P2;PMS_P1;PMS_P2;Temp;Humidity;BMP_temperature;BMP_pressure;BME280_temperature;BME280_humidity;BME280_pressure;Samples;Min_cycle;Max_cycle;Signal;HPM_P1;HPM_P2
2022/08/17 00:01:29;;;;;;;10.25;3.33;;;;;;;29.32;36.38;97571.81;4412385;32;20455;-84
2022/08/17 00:04:19;;;;;;;7.70;3.20;;;;;;;29.73;35.30;97576.34;4413683;32;20147;-84
2022/08/17 00:06:47;;;;;;;5.53;2.90;;;;;;;29.36;36.03;97571.25;4424972;32;20100;-84
2022/08/17 00:09:16;;;;;;;6.62;3.12;;;;;;;29.65;35.46;97572.00;4425338;32;20082;-84
2022/08/17 00:11:47;;;;;;;8.98;3.30;;;;;;;29.71;35.53;97573.88;4425090;32;20094;-84
2022/08/17 00:14:34;;;;;;;5.97;3.17;;;;;;;29.19;36.40;97563.78;4424762;32;20440;-84
2022/08/17 00:17:03;;;;;;;7.15;3.37;;;;;;;29.39;36.11;97564.72;4425345;32;20100;-84
2022/08/17 00:19:31;;;;;;;6.80;3.30;;;;;;;29.69;36.33;97567.13;4425229;32;20102;-84
2022/08/17 00:22:01;;;;;;;9.77;3.17;;;;;;;29.05;37.56;97563.69;4424513;32;20247;-84
2022/08/17 00:24:49;;;;;;;6.55;2.90;;;;;;;29.40;36.49;97558.38;4413798;32;20106;-84
2022/08/17 00:27:17;;;;;;;8.23;3.25;;;;;;;29.79;35.43;97557.78;4425245;32;20085;-84
2022/08/17 00:29:44;;;;;;;8.07;3.17;;;;;;;29.52;36.08;97556.00;4424823;32;20086;-84
2022/08/17 00:32:13;;;;;;;6.80;3.20;;;;;;;29.03;37.56;97563.06;4425060;32;20165;-84
2022/08/17 00:35:03;;;;;;;5.53;2.80;;;;;;;28.95;37.60;97555.25;4424568;32;20110;-84
2022/08/17 00:37:30;;;;;;;6.78;3.28;;;;;;;28.63;37.44;97563.75;4425090;32;20094;-84
2022/08/17 00:39:57;;;;;;;5.93;3.10;;;;;;;28.24;38.39;97559.66;4424928;32;20085;-84
2022/08/17 00:42:24;;;;;;;6.90;3.10;;;;;;;28.92;36.97;97558.25;4424728;32;20106;-84
2022/08/17 00:44:57;;;;;;;7.07;3.10;;;;;;;28.62;37.73;97554.13;4424991;32;20116;-84
2022/08/17 00:47:24;;;;;;;7.03;3.30;;;;;;;28.71;37.23;97553.81;4425009;32;20185;-84
2022/08/17 00:49:51;;;;;;;7.10;3.35;;;;;;;28.47;37.78;97551.53;4423887;32;20086;-84
2022/08/17 00:52:21;;;;;;;8.82;3.05;;;;;;;28.38;38.10;97550.84;4424363;32;20123;-84
2022/08/17 00:54:51;;;;;;;7.07;3.00;;;;;;;28.57;37.64;97553.87;4424835;32;20089;-84
2022/08/17 00:57:24;;;;;;;6.18;3.22;;;;;;;28.74;37.31;97550.75;4410832;32;20153;-84
2022/08/17 00:59:57;;;;;;;7.32;3.33;;;;;;;28.86;37.12;97556.38;4410955;32;20089;-84
2022/08/17 01:02:32;;;;;;;7.70;3.17;;;;;;;29.13;36.47;97553.91;4411428;32;20105;-84
2022/08/17 01:05:07;;;;;;;6.15;3.28;;;;;;;29.07;36.67;97555.53;4424747;32;20440;-84
2022/08/17 01:07:35;;;;;;;9.07;3.05;;;;;;;29.72;35.19;97558.75;4411125;32;20094;-84
2022/08/17 01:10:05;;;;;;;7.95;3.25;;;;;;;29.76;35.16;97566.12;4424283;32;20100;-84
2022/08/17 01:12:53;;;;;;;6.75;3.03;;;;;;;28.99;36.58;97561.78;4413151;32;20109;-84
2022/08/17 01:15:19;;;;;;;8.07;3.00;;;;;;;29.76;34.96;97563.47;4410627;32;20150;-84
2022/08/17 01:17:47;;;;;;;7.85;3.10;;;;;;;29.72;35.12;97564.06;4410557;32;20145;-84
2022/08/17 01:20:15;;;;;;;7.82;2.95;;;;;;;29.50;35.51;97555.37;4410582;32;20181;-84
2022/08/17 01:22:42;;;;;;;7.55;3.10;;;;;;;30.03;34.58;97560.91;4410932;32;20160;-84
2022/08/17 01:25:11;;;;;;;6.57;2.97;;;;;;;29.63;35.09;97558.91;4423956;32;20098;-84
2022/08/17 01:27:38;;;;;;;6.37;3.03;;;;;;;29.71;35.25;97560.59;4410669;32;20086;-84
2022/08/17 01:30:08;;;;;;;7.05;2.95;;;;;;;29.73;35.22;97555.06;4424227;32;20458;-84
2022/08/17 01:32:55;;;;;;;6.60;3.00;;;;;;;29.33;36.03;97560.97;4424252;32;20097;-84
2022/08/17 01:35:23;;;;;;;6.20;2.85;;;;;;;29.26;36.02;97564.63;4424327;32;20098;-84
2022/08/17 01:37:50;;;;;;;7.22;3.08;;;;;;;29.63;35.47;97558.91;4423987;32;20462;-84
2022/08/17 01:40:22;;;;;;;7.95;3.05;;;;;;;29.49;35.51;97557.22;4424091;32;20478;-84
2022/08/17 01:43:03;;;;;;;8.05;3.22;;;;;;;29.62;35.52;97559.94;4424158;32;20086;-84
2022/08/17 01:45:32;;;;;;;6.12;2.60;;;;;;;29.05;36.48;97568.19;4423779;32;20205;-84
2022/08/17 01:48:00;;;;;;;6.15;3.05;;;;;;;29.25;36.08;97574.44;4424180;32;20164;-84
2022/08/17 01:50:30;;;;;;;7.93;2.65;;;;;;;29.66;35.32;97573.66;4424013;32;20111;-84
2022/08/17 01:53:25;;;;;;;7.62;3.05;;;;;;;29.58;35.36;97577.31;4409954;32;20474;-84
2022/08/17 01:55:56;;;;;;;5.60;2.67;;;;;;;29.55;35.42;97569.72;4423925;32;20443;-84
2022/08/17 01:58:23;;;;;;;7.03;2.90;;;;;;;29.11;36.35;97575.34;4410301;32;20090;-84
2022/08/17 02:00:52;;;;;;;5.60;2.80;;;;;;;29.25;36.16;97573.62;4423507;32;20153;-84
2022/08/17 02:03:28;;;;;;;7.10;3.03;;;;;;;29.13;36.30;97568.00;4425741;32;20399;-84
2022/08/17 02:05:55;;;;;;;6.53;3.10;;;;;;;29.17;35.97;97563.16;4425853;32;20121;-84
2022/08/17 02:08:23;;;;;;;5.68;2.85;;;;;;;28.65;37.18;97569.66;4412456;32;20133;-84
2022/08/17 02:11:13;;;;;;;9.13;3.03;;;;;;;29.40;35.77;97563.69;4414053;32;20086;-84
2022/08/17 02:13:41;;;;;;;5.95;2.85;;;;;;;29.20;35.93;97570.72;4425803;32;20158;-83
2022/08/17 02:16:08;;;;;;;5.82;3.20;;;;;;;29.35;35.81;97568.78;4426065;32;20097;-84
2022/08/17 02:18:35;;;;;;;8.95;2.90;;;;;;;29.34;35.81;97565.28;4425976;32;20777;-84
2022/08/17 02:21:03;;;;;;;5.60;2.80;;;;;;;29.13;36.19;97565.34;4425389;32;20098;-84
2022/08/17 02:23:32;;;;;;;7.37;2.78;;;;;;;29.55;35.47;97567.06;4412142;32;20124;-84
2022/08/17 02:25:59;;;;;;;6.62;2.70;;;;;;;29.50;35.50;97564.19;4426014;32;20444;-84
2022/08/17 02:28:27;;;;;;;5.22;2.70;;;;;;;29.25;36.08;97573.62;4425739;32;20090;-84
2022/08/17 02:30:56;;;;;;;7.32;3.10;;;;;;;29.11;36.21;97567.38;4412104;32;20137;-84
2022/08/17 02:33:30;;;;;;;6.22;3.03;;;;;;;28.18;38.04;97568.41;4426064;32;20165;-84
2022/08/17 02:36:08;;;;;;;5.95;2.70;;;;;;;28.44;37.84;97559.91;4425780;32;20112;-84
2022/08/17 02:38:36;;;;;;;6.30;3.03;;;;;;;29.22;36.25;97563.38;4425909;32;20094;-84
2022/08/17 02:41:03;;;;;;;7.45;3.25;;;;;;;29.04;36.58;97562.06;4425467;32;20444;-84
2022/08/17 02:43:31;;;;;;;7.65;3.30;;;;;;;29.23;36.27;97570.31;4425469;32;20112;-83
2022/08/17 02:45:57;;;;;;;6.87;2.95;;;;;;;29.38;35.92;97555.09;4425940;32;20149;-84
2022/08/17 02:48:25;;;;;;;8.13;3.12;;;;;;;29.69;35.26;97559.97;4425568;32;20100;-84
2022/08/17 02:50:57;;;;;;;5.45;2.75;;;;;;;29.40;35.90;97563.69;4425932;32;20173;-84
2022/08/17 02:53:24;;;;;;;7.30;2.95;;;;;;;29.05;36.58;97558.38;4425854;32;20136;-84
2022/08/17 02:55:52;;;;;;;7.47;3.30;;;;;;;28.85;36.97;97556.56;4425420;32;20153;-84
2022/08/17 02:58:19;;;;;;;7.32;3.00;;;;;;;28.70;37.24;97552.13;4425758;32;20106;-84
2022/08/17 03:01:03;;;;;;;7.78;2.67;;;;;;;28.85;37.06;97560.03;4425711;32;20108;-84
2022/08/17 03:03:31;;;;;;;9.35;2.95;;;;;;;28.96;36.94;97558.72;4425295;32;20114;-83
2022/08/17 03:05:58;;;;;;;8.52;3.25;;;;;;;28.91;36.92;97559.28;4425831;32;20709;-84
2022/08/17 03:08:25;;;;;;;5.22;2.67;;;;;;;28.83;37.22;97559.41;4425648;32;20104;-84
2022/08/17 03:10:52;;;;;;;6.25;3.15;;;;;;;29.01;36.74;97554.44;4411594;32;20157;-84
2022/08/17 03:13:19;;;;;;;6.25;2.87;;;;;;;29.04;36.76;97559.41;4424830;32;20168;-84
2022/08/17 03:15:47;;;;;;;6.75;2.80;;;;;;;28.80;37.27;97554.47;4425686;32;20648;-84
2022/08/17 03:18:17;;;;;;;7.53;3.00;;;;;;;28.98;36.91;97559.34;4425399;32;20153;-84
2022/08/17 03:20:57;;;;;;;8.00;3.03;;;;;;;28.93;36.99;97557.28;4425430;32;20137;-84
2022/08/17 03:23:24;;;;;;;5.05;2.67;;;;;;;28.77;37.12;97558.34;4425183;32;20129;-83
2022/08/17 03:25:54;;;;;;;6.35;2.65;;;;;;;28.83;37.13;97559.41;4425613;32;20112;-84
2022/08/17 03:28:22;;;;;;;8.13;3.17;;;;;;;28.67;37.43;97557.03;4411985;32;20458;-84
2022/08/17 03:30:49;;;;;;;6.68;3.33;;;;;;;28.43;37.88;97568.88;4425197;32;20512;-84
2022/08/17 03:33:17;;;;;;;8.55;3.20;;;;;;;28.19;38.44;97568.19;4425501;32;20447;-84
2022/08/17 03:35:45;;;;;;;7.12;3.00;;;;;;;28.06;38.67;97560.09;4425557;32;20141;-84
2022/08/17 03:38:12;;;;;;;8.77;3.00;;;;;;;28.32;38.00;97567.53;4425221;32;20157;-84
2022/08/17 03:40:41;;;;;;;7.00;3.03;;;;;;;27.99;38.58;97577.78;4425484;32;20082;-84
2022/08/17 03:43:28;;;;;;;6.50;3.03;;;;;;;28.10;38.59;97561.37;4425356;32;20113;-84
2022/08/17 03:57:17;;;;;;;6.15;3.00;;;;;;;28.53;37.84;97577.34;4425446;32;20455;-84
2022/08/17 03:59:45;;;;;;;7.95;3.10;;;;;;;28.23;38.43;97572.09;4425116;32;20097;-84
2022/08/17 04:02:18;;;;;;;6.12;3.00;;;;;;;27.95;38.90;97572.00;4425273;32;20148;-84
2022/08/17 04:04:45;;;;;;;8.38;3.37;;;;;;;28.25;38.71;97574.56;4411463;32;20457;-84
2022/08/17 04:07:12;;;;;;;6.62;2.90;;;;;;;29.18;36.70;97573.56;4425095;32;20094;-84
2022/08/17 04:09:39;;;;;;;6.35;2.85;;;;;;;29.33;36.32;97570.78;4425294;32;20152;-84
2022/08/17 04:12:06;;;;;;;8.13;3.17;;;;;;;29.28;36.66;97575.88;4424926;32;20115;-84
2022/08/17 04:14:37;;;;;;;6.68;3.03;;;;;;;29.36;36.52;97576.56;4425165;32;20161;-84
2022/08/17 04:17:25;;;;;;;6.40;3.10;;;;;;;29.35;36.18;97576.75;4425318;32;20102;-84
2022/08/17 04:19:52;;;;;;;6.75;3.03;;;;;;;29.14;36.97;97582.97;4411087;32;20212;-84
2022/08/17 04:22:20;;;;;;;6.53;2.90;;;;;;;29.66;35.85;97582.44;4425007;32;20100;-84
2022/08/17 04:25:05;;;;;;;11.63;3.05;;;;;;;29.91;35.39;97584.59;4424783;32;20525;-84
2022/08/17 04:27:32;;;;;;;6.53;2.65;;;;;;;30.55;34.27;97589.50;4424858;32;20205;-84
2022/08/17 04:29:59;;;;;;;6.10;2.97;;;;;;;31.03;33.36;97587.47;4425051;32;20089;-84
2022/08/17 04:32:26;;;;;;;6.25;2.75;;;;;;;31.47;32.67;97603.81;4425168;32;20575;-84
2022/08/17 04:35:17;;;;;;;;;;;;;;;31.88;32.06;97601.66;4425171;32;20105;-84
2022/08/17 04:37:44;;;;;;;6.68;2.75;;;;;;;32.47;31.06;97607.78;4425224;32;20007;-84
2022/08/17 04:43:06;;;;;;;5.30;2.58;;;;;;;32.97;30.07;97606.00;4425021;32;20086;-84
2022/08/17 04:45:33;;;;;;;7.07;2.90;;;;;;;33.15;30.08;97594.50;4424735;32;20120;-84
2022/08/17 04:48:00;;;;;;;7.93;2.80;;;;;;;33.04;30.20;97604.06;4424610;32;20149;-84
2022/08/17 04:50:27;;;;;;;6.43;2.87;;;;;;;33.20;30.15;97610.72;4424534;32;20089;-84
2022/08/17 04:52:54;;;;;;;6.12;2.90;;;;;;;32.79;30.66;97601.38;4424785;32;20158;-84
2022/08/17 04:55:21;;;;;;;6.40;3.05;;;;;;;32.94;30.58;97598.41;4424421;32;20165;-84
2022/08/17 04:57:48;;;;;;;6.03;2.65;;;;;;;33.96;29.22;97604.19;4424880;32;20115;-83
2022/08/17 05:00:15;;;;;;;5.30;2.50;;;;;;;34.55;28.35;97610.59;4424631;32;20122;-83
2022/08/17 05:02:46;;;;;;;8.75;2.87;;;;;;;35.13;27.56;97609.91;4424260;32;20102;-84
2022/08/17 05:05:21;;;;;;;9.18;2.80;;;;;;;35.75;26.84;97614.78;4411253;32;20106;-83
2022/08/17 05:07:53;;;;;;;9.35;2.97;;;;;;;36.08;26.05;97616.81;4424741;32;20113;-82
2022/08/17 05:10:21;;;;;;;9.30;2.78;;;;;;;36.71;25.48;97619.34;4424209;32;20458;-82
2022/08/17 05:12:57;;;;;;;9.05;2.78;;;;;;;37.03;24.73;97616.94;4424564;32;20090;-81
2022/08/17 05:15:24;;;;;;;;;;;;;;;37.40;24.69;97621.81;4424373;32;20093;-82
2022/08/17 05:17:50;;;;;;;;;;;;;;;37.30;24.82;97616.28;4424863;32;20032;-82
2022/08/17 05:20:17;;;;;;;;;;;;;;;37.39;24.40;97624.75;4424306;32;20064;-82
2022/08/17 05:22:49;;;;;;;;;;;;;;;36.71;25.30;97629.28;4424450;32;20016;-83
2022/08/17 05:25:19;;;;;;;7.78;2.90;;;;;;;36.70;25.37;97628.47;4424606;32;19996;-82
2022/08/17 05:27:50;;;;;;;5.68;2.55;;;;;;;37.20;24.79;97627.66;4424573;32;20143;-82
2022/08/17 05:30:17;;;;;;;5.55;2.90;;;;;;;37.66;24.24;97622.16;4423893;32;20097;-83
2022/08/17 05:32:51;;;;;;;6.87;2.92;;;;;;;38.00;23.76;97628.25;4424396;32;20108;-82
2022/08/17 05:35:19;;;;;;;6.12;3.08;;;;;;;37.99;23.88;97622.06;4424212;32;20167;-82
2022/08/17 05:37:46;;;;;;;8.30;2.90;;;;;;;38.29;23.20;97624.31;4425203;32;20115;-83
2022/08/17 05:40:13;;;;;;;7.30;2.62;;;;;;;38.43;23.02;97622.03;4426151;32;20441;-83
2022/08/17 05:42:40;;;;;;;8.07;2.80;;;;;;;38.60;22.70;97628.13;4412412;32;20173;-83
2022/08/17 05:45:09;;;;;;;6.43;2.40;;;;;;;38.21;23.20;97624.78;4425775;32;20225;-82
2022/08/17 05:47:38;;;;;;;8.15;3.12;;;;;;;37.75;23.79;97615.25;4412424;32;20124;-83
2022/08/17 05:50:07;;;;;;;6.70;2.95;;;;;;;37.80;24.01;97624.25;4426066;32;20153;-82
2022/08/17 05:52:57;;;;;;;5.47;2.83;;;;;;;37.51;24.46;97626.25;4412422;32;20108;-82
2022/08/17 05:55:58;;;;;;;9.00;2.78;;;;;;;37.25;24.86;97627.75;4426051;32;20137;-81
2022/08/17 05:58:31;;;;;;;6.10;2.65;;;;;;;37.39;24.88;97625.56;4426358;32;20157;-83
2022/08/17 06:01:11;;;;;;;7.15;2.72;;;;;;;37.44;24.70;97628.34;4412037;32;20120;-83
2022/08/17 06:03:59;;;;;;;6.15;2.95;;;;;;;37.79;24.35;97629.91;4425901;32;20459;-79
2022/08/17 06:06:49;;;;;;;7.32;2.87;;;;;;;37.87;24.05;97635.66;4425633;32;20133;-80
2022/08/17 06:09:38;;;;;;;8.23;2.90;;;;;;;37.52;24.77;97635.16;4412424;32;20428;-81
2022/08/17 06:12:25;;;;;;;5.82;2.80;;;;;;;37.44;24.47;97631.03;4425691;32;20089;-80
2022/08/17 06:15:25;;;;;;;5.93;3.03;;;;;;;36.81;25.56;97634.03;4412292;32;20589;-81
2022/08/17 06:17:55;;;;;;;8.27;2.90;;;;;;;37.29;25.16;97628.91;4416643;32;20136;-80
2022/08/17 06:20:22;;;;;;;7.05;2.92;;;;;;;37.16;25.26;97628.41;4411655;32;20114;-80
2022/08/17 06:22:54;;;;;;;4.97;2.70;;;;;;;37.77;24.90;97632.03;4412335;32;20160;-80
2022/08/17 06:25:21;;;;;;;9.50;2.90;;;;;;;37.73;24.92;97631.66;4411984;32;20111;-80
2022/08/17 06:27:53;;;;;;;28.17;6.70;;;;;;;37.39;25.47;97630.94;4425987;32;20111;-80
2022/08/17 06:30:23;;;;;;;66.47;9.73;;;;;;;37.54;25.70;97628.47;4425970;32;20140;-80
2022/08/17 06:32:52;;;;;;;50.88;8.30;;;;;;;38.26;24.84;97634.78;4425657;32;20100;-81
2022/08/17 06:35:25;;;;;;;9.90;3.25;;;;;;;38.12;24.75;97635.12;4425445;32;20441;-80
2022/08/17 06:38:05;;;;;;;5.78;2.92;;;;;;;38.62;23.86;97642.16;4425361;32;20098;-80
2022/08/17 06:40:51;;;;;;;5.50;2.60;;;;;;;38.23;23.81;97636.09;4425188;32;20098;-79
2022/08/17 06:43:52;;;;;;;6.20;3.08;;;;;;;38.22;23.76;97639.06;4425888;32;20160;-80
2022/08/17 06:46:22;;;;;;;7.50;3.10;;;;;;;38.29;24.01;97642.38;4401914;32;20160;-81
2022/08/17 06:49:08;;;;;;;8.10;2.85;;;;;;;37.64;24.91;97633.16;4425549;32;20451;-81
2022/08/17 06:52:05;;;;;;;14.70;2.97;;;;;;;37.37;24.81;97635.75;4412152;32;20113;-81
2022/08/17 06:54:38;;;;;;;9.60;2.70;;;;;;;35.59;25.38;97633.22;4423303;32;20081;-81
2022/08/17 06:57:18;;;;;;;6.50;2.70;;;;;;;36.81;23.92;97644.78;4411924;32;20148;-81
2022/08/17 06:59:54;;;;;;;9.63;2.87;;;;;;;36.74;23.92;97642.22;4412070;32;20153;-81
2022/08/17 07:02:36;;;;;;;4.43;2.47;;;;;;;37.26;23.17;97640.16;4425549;32;20419;-80
2022/08/17 07:05:23;;;;;;;6.57;2.90;;;;;;;36.54;24.09;97641.88;4425652;32;20090;-80
2022/08/17 07:08:02;;;;;;;45.97;8.27;;;;;;;37.10;23.44;97638.28;4411714;32;20078;-81
2022/08/17 07:10:42;;;;;;;12.10;3.37;;;;;;;38.23;22.06;97646.06;4425677;32;20113;-79
2022/08/17 07:13:24;;;;;;;6.90;2.85;;;;;;;37.44;23.10;97641.78;4412013;32;20416;-80
2022/08/17 07:15:54;;;;;;;8.40;3.40;;;;;;;38.43;21.86;97640.91;4425275;32;20169;-80
2022/08/17 07:18:25;;;;;;;5.85;2.55;;;;;;;38.66;21.44;97645.16;4425362;32;20593;-81
2022/08/17 07:20:57;;;;;;;7.65;2.67;;;;;;;37.61;22.38;97636.34;4411168;32;20119;-81
2022/08/17 07:23:45;;;;;;;7.55;2.78;;;;;;;37.31;22.99;97644.81;4425266;32;20129;-81
2022/08/17 07:26:12;;;;;;;6.30;2.87;;;;;;;36.96;23.71;97648.53;4425644;32;20160;-81
2022/08/17 07:28:41;;;;;;;14.18;3.50;;;;;;;37.41;23.23;97649.53;4425365;32;20145;-81
2022/08/17 07:31:12;;;;;;;6.07;3.00;;;;;;;37.66;23.55;97649.91;4412182;32;20460;-82
2022/08/17 07:33:39;;;;;;;7.30;2.80;;;;;;;37.91;22.26;97646.75;4425775;32;20132;-80
2022/08/17 07:36:23;;;;;;;7.25;3.12;;;;;;;38.10;22.33;97648.06;4425119;32;20126;-80
2022/08/17 07:38:57;;;;;;;5.97;2.90;;;;;;;38.23;22.27;97640.69;4425406;32;20070;-80
2022/08/17 07:41:24;;;;;;;5.78;2.90;;;;;;;37.90;22.36;97645.94;4424860;32;20101;-80
2022/08/17 07:44:13;;;;;;;52.60;9.50;;;;;;;37.85;22.43;97647.72;4424969;32;20102;-80
2022/08/17 07:49:39;;;;;;;7.78;3.30;;;;;;;37.65;22.81;97648.28;4413504;32;20176;-80
2022/08/17 07:52:10;;;;;;;10.48;3.25;;;;;;;37.71;22.50;97652.63;4425358;32;20140;-80
2022/08/17 07:54:58;;;;;;;11.25;3.60;;;;;;;37.80;22.80;97645.78;4425349;32;20114;-80
2022/08/17 07:57:29;;;;;;;8.63;3.40;;;;;;;38.24;21.91;97651.19;4424971;32;20136;-81
2022/08/17 07:59:59;;;;;;;9.60;3.17;;;;;;;38.31;22.06;97659.91;4424506;32;20082;-80
2022/08/17 08:02:39;;;;;;;15.68;3.30;;;;;;;38.67;20.62;97660.28;4424787;32;20093;-80
2022/08/17 08:05:24;;;;;;;17.48;4.87;;;;;;;38.54;21.21;97668.75;4425693;32;20105;-80
2022/08/17 08:08:24;;;;;;;6.82;3.20;;;;;;;38.32;21.31;97660.72;4414232;32;20093;-80
2022/08/17 08:11:09;;;;;;;20.90;4.15;;;;;;;37.88;21.49;97650.75;4413476;32;20145;-80
2022/08/17 08:13:43;;;;;;;8.13;3.05;;;;;;;37.08;23.02;97662.72;4415442;32;20121;-79
2022/08/17 08:16:18;;;;;;;7.93;3.20;;;;;;;36.74;23.29;97674.47;4425174;32;20147;-79
2022/08/17 08:18:48;;;;;;;6.50;2.92;;;;;;;38.52;21.03;97666.31;4424342;32;20177;-79
2022/08/17 08:21:59;;;;;;;12.63;3.58;;;;;;;38.19;21.32;97668.09;4424253;32;20372;-80
2022/08/17 08:24:47;;;;;;;10.18;3.65;;;;;;;39.23;20.61;97671.56;4424733;32;20128;-79
2022/08/17 08:27:21;;;;;;;8.18;2.83;;;;;;;39.37;20.14;97678.16;4424868;32;20460;-79
2022/08/17 08:29:55;;;;;;;20.77;3.40;;;;;;;39.48;20.01;97669.06;4425006;32;20579;-79
2022/08/17 08:32:22;;;;;;;6.25;3.30;;;;;;;39.49;20.46;97665.28;4410772;32;20109;-79
2022/08/17 08:35:19;;;;;;;7.07;3.28;;;;;;;40.31;18.99;97666.53;4424863;32;20157;-79
2022/08/17 08:37:48;;;;;;;5.05;3.05;;;;;;;39.65;19.44;97660.00;4424951;32;20152;-80
2022/08/17 08:40:40;;;;;;;17.65;4.37;;;;;;;39.06;20.13;97661.72;4424268;32;20085;-80
2022/08/17 08:43:13;;;;;;;17.83;3.40;;;;;;;40.11;19.09;97669.97;4424837;32;20428;-79
2022/08/17 08:45:56;;;;;;;6.95;3.20;;;;;;;39.93;19.58;97670.41;4424693;32;20509;-79
2022/08/17 08:48:29;;;;;;;7.40;3.17;;;;;;;39.32;20.04;97667.31;4424782;32;20138;-78
2022/08/17 08:51:24;;;;;;;27.83;5.35;;;;;;;39.09;20.06;97679.28;4424298;32;20090;-78
2022/08/17 08:57:25;;;;;;;6.55;2.95;;;;;;;39.84;19.23;97678.19;4424562;32;20150;-79
2022/08/17 09:00:14;;;;;;;7.15;3.35;;;;;;;38.83;20.21;97674.75;4399911;32;20101;-79
2022/08/17 09:02:53;;;;;;;8.27;3.05;;;;;;;39.75;19.45;97671.66;4410879;32;20139;-79
2022/08/17 09:05:26;;;;;;;5.57;3.05;;;;;;;39.79;19.58;97670.09;4410385;32;20153;-79
2022/08/17 09:08:00;;;;;;;7.28;3.15;;;;;;;38.71;20.63;97669.50;4424225;32;20112;-79
2022/08/17 09:10:34;;;;;;;10.18;3.67;;;;;;;38.94;20.03;97662.97;4424603;32;20145;-79
2022/08/17 09:13:37;;;;;;;10.43;3.20;;;;;;;39.05;19.91;97661.97;4411673;32;20128;-78
2022/08/17 09:16:19;;;;;;;7.18;3.37;;;;;;;39.50;19.31;97671.50;4425750;32;20424;-78
2022/08/17 09:18:50;;;;;;;9.32;3.10;;;;;;;39.37;19.31;97677.34;4412766;32;20230;-79
2022/08/17 09:21:45;;;;;;;8.68;3.37;;;;;;;38.56;20.04;97672.81;4413540;32;20515;-79
2022/08/17 09:24:38;;;;;;;5.85;3.03;;;;;;;39.08;19.46;97677.66;4413001;32;20087;-79
2022/08/17 09:27:17;;;;;;;5.12;3.00;;;;;;;39.62;19.04;97682.94;4412491;32;20108;-78
2022/08/17 09:29:48;;;;;;;7.53;3.25;;;;;;;39.53;19.52;97684.47;4426182;32;20153;-79
2022/08/17 09:32:20;;;;;;;5.12;2.80;;;;;;;39.81;19.19;97673.31;4426361;32;20455;-79
2022/08/17 09:34:53;;;;;;;6.97;2.87;;;;;;;39.74;18.60;97669.22;4412394;32;20109;-79
2022/08/17 09:37:32;;;;;;;6.72;3.08;;;;;;;38.45;19.82;97674.59;4426425;32;20169;-79
2022/08/17 09:40:08;;;;;;;7.82;3.20;;;;;;;39.47;19.30;97672.84;4412459;32;20211;-79
2022/08/17 09:42:48;;;;;;;11.05;3.90;;;;;;;40.36;18.24;97676.53;4426105;32;20108;-79
2022/08/17 09:45:26;;;;;;;6.72;3.17;;;;;;;40.25;18.59;97677.59;4426138;32;20103;-80
2022/08/17 09:48:47;;;;;;;6.43;3.08;;;;;;;41.23;17.58;97682.91;4412696;32;20078;-79
2022/08/17 09:51:17;;;;;;;20.75;4.03;;;;;;;40.85;18.23;97676.97;4348415;33;20287;-80
2022/08/17 09:53:44;;;;;;;17.05;4.12;;;;;;;41.35;17.19;97677.22;4398788;32;20451;-80
2022/08/17 09:56:17;;;;;;;6.25;2.87;;;;;;;40.84;17.55;97669.09;4425700;32;20090;-79
2022/08/17 09:59:02;;;;;;;7.43;3.22;;;;;;;40.50;17.68;97668.75;4426072;32;20105;-79
2022/08/17 10:01:36;;;;;;;5.35;3.00;;;;;;;40.45;18.29;97670.38;4426134;32;20106;-80
2022/08/17 10:04:18;;;;;;;6.05;3.15;;;;;;;40.50;18.01;97664.16;4411694;32;20166;-78
2022/08/17 10:07:01;;;;;;;7.68;3.10;;;;;;;40.26;17.94;97655.69;4425626;32;20104;-79
2022/08/17 10:09:59;;;;;;;5.35;2.97;;;;;;;40.22;17.73;97667.31;4412253;32;20146;-79
2022/08/17 10:12:26;;;;;;;8.68;3.22;;;;;;;39.31;18.75;97669.22;4425995;32;20114;-79
2022/08/17 10:15:23;;;;;;;7.47;3.47;;;;;;;38.40;19.86;97662.97;4425794;32;20243;-80
2022/08/17 10:18:30;;;;;;;8.75;3.35;;;;;;;39.57;18.92;97664.84;4424168;32;20097;-80
2022/08/17 10:26:57;;;;;;;5.72;2.87;;;;;;;41.03;17.44;97667.47;4424668;32;20154;-80
2022/08/17 10:29:37;;;;;;;6.37;3.15;;;;;;;41.88;16.73;97670.38;4411425;32;20128;-80
2022/08/17 10:32:47;;;;;;;8.30;3.30;;;;;;;41.94;16.53;97671.16;4424982;32;20086;-80
2022/08/17 10:35:29;;;;;;;6.68;2.55;;;;;;;40.75;16.90;97663.41;4399622;32;20459;-79
2022/08/17 10:38:20;;;;;;;6.35;3.10;;;;;;;41.34;15.93;97671.00;4412324;32;20181;-79
2022/08/17 10:40:58;;;;;;;5.35;3.10;;;;;;;41.66;16.19;97662.56;4425939;32;20104;-79
2022/08/17 10:43:37;;;;;;;5.22;2.60;;;;;;;41.22;16.63;97665.84;4426026;32;20143;-80
2022/08/17 10:46:18;;;;;;;6.78;2.87;;;;;;;40.75;16.85;97668.81;4425462;32;20113;-79
2022/08/17 10:49:15;;;;;;;6.93;3.78;;;;;;;41.68;16.15;97656.84;4425947;32;20669;-80
2022/08/17 10:51:54;;;;;;;5.85;3.03;;;;;;;41.96;16.14;97664.38;4425951;32;20101;-79
2022/08/17 10:54:23;;;;;;;8.93;3.35;;;;;;;42.29;16.06;97660.19;4425507;32;20157;-80
2022/08/17 10:56:52;;;;;;;7.60;3.25;;;;;;;42.57;15.92;97656.00;4425719;32;20098;-79
2022/08/17 10:59:34;;;;;;;7.20;3.33;;;;;;;42.17;16.30;97655.09;4425605;32;20117;-79
2022/08/17 11:02:21;;;;;;;5.37;3.05;;;;;;;40.26;17.88;97654.88;4425705;32;20085;-79
2022/08/17 11:05:16;;;;;;;6.28;3.42;;;;;;;38.74;19.82;97648.22;4425750;32;20150;-79
2022/08/17 11:08:11;;;;;;;5.50;3.10;;;;;;;39.94;18.53;97645.03;4411637;32;20165;-79
2022/08/17 11:10:47;;;;;;;6.20;3.17;;;;;;;39.31;19.10;97633.31;4425856;32;20132;-79
2022/08/17 11:13:47;;;;;;;5.72;3.17;;;;;;;39.27;19.06;97641.13;4412277;32;20148;-80
2022/08/17 11:16:48;;;;;;;5.32;2.90;;;;;;;39.59;18.92;97648.38;4425524;32;20635;-79
2022/08/17 11:19:45;;;;;;;5.87;2.90;;;;;;;39.26;19.01;97644.09;4425704;32;20492;-79
2022/08/17 11:22:56;;;;;;;5.82;3.10;;;;;;;40.66;17.91;97641.47;4425123;32;20133;-80
2022/08/17 11:25:39;;;;;;;5.68;2.80;;;;;;;41.18;17.02;97650.44;4425379;32;20504;-80
2022/08/17 11:28:18;;;;;;;10.07;3.30;;;;;;;41.66;17.17;97638.19;4411547;32;20153;-79
2022/08/17 11:30:50;;;;;;;6.93;3.35;;;;;;;41.41;17.77;97630.13;4411990;32;20098;-80
2022/08/17 11:33:28;;;;;;;9.07;3.15;;;;;;;41.15;17.60;97630.13;4425667;32;20149;-79
2022/08/17 11:36:15;;;;;;;6.47;3.35;;;;;;;40.32;18.35;97634.91;4423718;32;20085;-79
2022/08/17 11:38:59;;;;;;;5.75;3.20;;;;;;;40.01;18.65;97628.59;4422711;32;20093;-79
2022/08/17 11:41:55;;;;;;;5.65;2.90;;;;;;;40.99;17.75;97625.84;4424495;32;20125;-79
2022/08/17 11:44:41;;;;;;;13.00;3.83;;;;;;;41.47;17.20;97619.00;4411001;32;20157;-78
2022/08/17 11:53:38;;;;;;;6.80;3.37;;;;;;;40.80;17.81;97624.72;4412619;32;20137;-79
2022/08/17 11:56:08;;;;;;;6.68;3.12;;;;;;;41.39;17.37;97614.16;4423853;32;20152;-79
2022/08/17 11:58:37;;;;;;;6.40;3.35;;;;;;;40.05;18.14;97616.19;4424295;32;20112;-79
2022/08/17 12:01:07;;;;;;;8.82;3.30;;;;;;;39.42;19.15;97613.41;4424638;32;20496;-79
2022/08/17 12:03:34;;;;;;;6.75;3.03;;;;;;;40.15;19.00;97608.91;4424111;32;20113;-79
2022/08/17 12:06:18;;;;;;;6.12;3.33;;;;;;;41.04;18.30;97613.09;4423703;32;20093;-79
2022/08/17 12:08:54;;;;;;;5.22;3.20;;;;;;;40.11;18.85;97601.63;4398935;32;20094;-79
2022/08/17 12:11:49;;;;;;;12.05;3.53;;;;;;;39.14;18.93;97598.41;4410858;32;20444;-79
2022/08/17 12:14:39;;;;;;;9.23;3.70;;;;;;;39.10;19.11;97601.84;4412294;32;20097;-79
2022/08/17 12:17:28;;;;;;;63.75;9.00;;;;;;;39.95;18.12;97602.63;4405858;32;230681;-79
2022/08/17 12:20:21;;;;;;;16.95;4.30;;;;;;;40.50;18.06;97598.47;4424196;32;20459;-80
2022/08/17 12:23:18;;;;;;;10.15;3.80;;;;;;;40.00;17.83;97602.69;4411051;32;20702;-80
2022/08/17 12:25:50;;;;;;;53.75;8.38;;;;;;;40.02;18.35;97598.63;4403017;32;20102;-80
2022/08/17 12:28:24;;;;;;;7.32;2.97;;;;;;;40.28;17.53;97601.38;4410563;32;20159;-80
2022/08/17 12:30:52;;;;;;;7.62;3.37;;;;;;;40.79;17.24;97602.28;4424341;32;20160;-79
2022/08/17 12:33:23;;;;;;;14.90;4.15;;;;;;;40.06;18.97;97601.59;4424447;32;20173;-78
2022/08/17 12:35:57;;;;;;;6.90;3.60;;;;;;;38.53;20.49;97587.09;4423476;32;20125;-79
2022/08/17 12:38:25;;;;;;;9.90;3.80;;;;;;;38.71;20.68;97588.62;4408453;32;20146;-78
2022/08/17 12:41:24;;;;;;;10.52;3.40;;;;;;;38.66;20.89;97586.69;4422794;32;20507;-78
2022/08/17 12:44:00;;;;;;;7.32;3.40;;;;;;;38.48;20.97;97578.94;4423039;32;20089;-78
2022/08/17 12:46:54;;;;;;;12.05;3.80;;;;;;;38.82;20.67;97586.81;4422597;32;20090;-79
2022/08/17 12:49:25;;;;;;;16.77;4.70;;;;;;;38.85;20.86;97589.81;4413246;32;20174;-79